createdAt,value
2018-05-31T00:03:34.474Z,99302.81
2018-05-31T00:09:38.843Z,99290.59
2018-05-31T00:15:43.253Z,99297.61
2018-05-31T00:21:48.414Z,99290.64
2018-05-31T00:27:53.472Z,99277.41
2018-05-31T00:33:58.679Z,99280.81
2018-05-31T00:40:03.181Z,99278.64
2018-05-31T00:46:07.576Z,99286.73
2018-05-31T00:52:12.102Z,99286.97
2018-05-31T00:58:16.484Z,99295.50
2018-05-31T01:04:20.856Z,99303.20
2018-05-31T01:10:25.354Z,99303.75
2018-05-31T01:16:29.766Z,99306.87
2018-05-31T01:22:34.355Z,99312.27
2018-05-31T01:28:38.855Z,99312.16
2018-05-31T01:34:44.042Z,99311.21
2018-05-31T01:40:48.435Z,99312.84
2018-05-31T01:46:52.968Z,99311.95
2018-05-31T01:52:57.329Z,99313.45
2018-05-31T01:59:01.704Z,99309.22
2018-05-31T02:05:06.189Z,99313.98
2018-05-31T02:11:10.752Z,99309.52
2018-05-31T02:17:15.201Z,99312.09
2018-05-31T02:23:20.553Z,99312.63
2018-05-31T02:29:25.480Z,99307.47
2018-05-31T02:35:30.625Z,99311.95
2018-05-31T02:41:35.036Z,99312.65
2018-05-31T02:47:39.787Z,99316.72
2018-05-31T02:53:44.784Z,99310.53
2018-05-31T02:59:50.820Z,99306.13
2018-05-31T03:05:55.410Z,99301.83
2018-05-31T03:11:59.851Z,99291.39
2018-05-31T03:18:05.075Z,99292.62
2018-05-31T03:24:09.562Z,99298.66
2018-05-31T03:30:14.116Z,99297.66
2018-05-31T03:36:18.507Z,99297.25
2018-05-31T03:42:23.021Z,99296.89
2018-05-31T03:48:27.588Z,99296.96
2018-05-31T03:54:32.191Z,99302.23
2018-05-31T04:00:36.573Z,99306.80
2018-05-31T04:06:40.993Z,99303.22
2018-05-31T04:12:46.156Z,99298.97
2018-05-31T04:18:50.539Z,99291.25
2018-05-31T04:24:55.579Z,99297.69
2018-05-31T04:31:00.075Z,99310.14
2018-05-31T04:37:04.526Z,99317.69
2018-05-31T04:43:09.654Z,99306.08
2018-05-31T04:49:14.028Z,99301.23
2018-05-31T04:55:18.403Z,99307.09
2018-05-31T05:01:23.993Z,99314.27
2018-05-31T05:07:28.701Z,99317.52
2018-05-31T05:13:33.091Z,99324.84
2018-05-31T05:19:37.953Z,99332.98
2018-05-31T05:25:42.316Z,99329.52
2018-05-31T05:31:46.740Z,99321.30
2018-05-31T05:37:52.541Z,99318.62
2018-05-31T05:43:56.906Z,99322.88
2018-05-31T05:50:01.278Z,99320.33
2018-05-31T05:56:05.689Z,99316.39
2018-05-31T06:02:10.963Z,99316.67
2018-05-31T06:08:16.116Z,99313.11
2018-05-31T06:14:20.764Z,99315.69
2018-05-31T06:20:25.940Z,99326.59
2018-05-31T06:26:30.623Z,99316.06
2018-05-31T06:32:34.785Z,99314.85
2018-05-31T06:38:39.160Z,99308.23
2018-05-31T06:44:43.530Z,99319.98
2018-05-31T06:50:47.907Z,99320.42
2018-05-31T06:56:52.996Z,99320.75
2018-05-31T07:02:57.380Z,99329.20
2018-05-31T07:09:01.709Z,99319.14
2018-05-31T07:15:06.125Z,99319.08
2018-05-31T07:21:10.563Z,99328.86
2018-05-31T07:27:14.992Z,99338.91
2018-05-31T07:33:20.527Z,99344.50
2018-05-31T07:39:26.594Z,99342.00
2018-05-31T07:45:30.941Z,99336.06
2018-05-31T07:51:35.325Z,99326.83
2018-05-31T07:57:39.678Z,99333.98
2018-05-31T08:03:44.479Z,99339.02
2018-05-31T08:09:48.828Z,99339.56
2018-05-31T08:15:53.341Z,99343.14
2018-05-31T08:21:57.734Z,99337.70
2018-05-31T08:28:02.048Z,99335.48
2018-05-31T08:34:06.469Z,99343.75
2018-05-31T08:40:10.839Z,99341.55
2018-05-31T08:46:15.190Z,99339.31
2018-05-31T08:52:19.574Z,99341.44
2018-05-31T08:58:24.101Z,99334.72
2018-05-31T09:04:29.221Z,99330.56
2018-05-31T09:10:33.693Z,99330.02
2018-05-31T09:16:38.054Z,99331.89
2018-05-31T09:22:43.136Z,99329.31
2018-05-31T09:28:47.520Z,99327.43
2018-05-31T09:34:53.139Z,99322.86
2018-05-31T09:40:57.678Z,99317.39
2018-05-31T09:47:02.037Z,99318.25
2018-05-31T09:53:06.393Z,99328.36
2018-05-31T09:59:10.733Z,99322.13
2018-05-31T10:05:15.881Z,99318.27
2018-05-31T10:11:20.260Z,99327.10
2018-05-31T10:17:24.769Z,99320.55
2018-05-31T10:23:29.921Z,99321.61
2018-05-31T10:29:34.259Z,99313.27
2018-05-31T10:35:38.828Z,99302.83
2018-05-31T10:41:43.220Z,99302.48
2018-05-31T10:47:47.569Z,99296.07
2018-05-31T10:53:52.865Z,99300.13
2018-05-31T10:59:57.311Z,99292.81
2018-05-31T11:06:01.654Z,99291.73
2018-05-31T11:12:05.992Z,99295.78
2018-05-31T11:18:11.119Z,99298.51
2018-05-31T11:24:15.473Z,99286.63
2018-05-31T11:30:20.535Z,99286.37
2018-05-31T11:36:24.953Z,99278.30
2018-05-31T11:42:29.303Z,99259.89
2018-05-31T11:48:34.385Z,99255.66
2018-05-31T11:54:38.764Z,99246.25
2018-05-31T12:00:43.083Z,99253.36
2018-05-31T12:06:47.456Z,99252.34
2018-05-31T12:12:52.830Z,99238.62
2018-05-31T12:18:57.337Z,99236.21
2018-05-31T12:25:01.686Z,99229.41
2018-05-31T12:31:06.032Z,99222.83
2018-05-31T12:37:10.377Z,99219.12
2018-05-31T12:43:14.728Z,99226.88
2018-05-31T12:49:19.124Z,99234.72
2018-05-31T12:55:23.598Z,99234.17
2018-05-31T13:01:27.961Z,99225.22
2018-05-31T13:07:32.271Z,99220.73
2018-05-31T13:13:37.506Z,99222.11
2018-05-31T13:19:41.858Z,99211.45
2018-05-31T13:25:46.997Z,99218.59
2018-05-31T13:31:51.783Z,99228.41
2018-05-31T13:37:56.130Z,99215.15
2018-05-31T13:44:00.491Z,99195.59
2018-05-31T13:50:05.629Z,99186.16
2018-05-31T13:56:09.969Z,99193.19
2018-05-31T14:02:14.323Z,99188.70
2018-05-31T14:08:19.441Z,99184.53
2018-05-31T14:14:23.810Z,99183.80
2018-05-31T14:20:28.172Z,99187.63
2018-05-31T14:26:33.294Z,99188.73
2018-05-31T14:32:37.657Z,99178.91
2018-05-31T14:38:42.026Z,99190.44
2018-05-31T14:44:46.375Z,99192.12
2018-05-31T14:50:51.496Z,99191.30
2018-05-31T14:56:55.864Z,99179.77
2018-05-31T15:03:00.221Z,99180.70
2018-05-31T15:09:07.999Z,99191.39
2018-05-31T15:15:12.341Z,99194.23
2018-05-31T15:21:16.838Z,99204.66
2018-05-31T15:27:21.253Z,99204.20
2018-05-31T15:33:25.689Z,99212.02
2018-05-31T15:39:30.806Z,99216.87
2018-05-31T15:45:35.161Z,99195.90
2018-05-31T15:51:40.291Z,99194.53
2018-05-31T15:57:44.651Z,99201.02
2018-05-31T16:03:48.961Z,99191.03
2018-05-31T16:09:53.395Z,99189.47
2018-05-31T16:15:57.761Z,99174.08
2018-05-31T16:22:02.863Z,99170.41
2018-05-31T16:28:07.224Z,99177.42
2018-05-31T16:34:11.567Z,99173.23
2018-05-31T16:40:15.912Z,99182.84
2018-05-31T16:46:20.254Z,99191.08
2018-05-31T16:52:24.625Z,99199.54
2018-05-31T16:58:28.955Z,99207.36
2018-05-31T17:04:33.314Z,99202.89
2018-05-31T17:10:37.657Z,99187.52
2018-05-31T17:16:42.026Z,99183.98
2018-05-31T17:22:47.119Z,99178.36
2018-05-31T17:28:51.472Z,99178.36
2018-05-31T17:34:56.577Z,99173.19
2018-05-31T17:41:00.923Z,99166.56
2018-05-31T17:47:05.284Z,99176.48
2018-05-31T17:53:10.442Z,99196.84
2018-05-31T17:59:14.771Z,99203.78
2018-05-31T18:05:19.154Z,99204.30
2018-05-31T18:11:24.305Z,99201.66
2018-05-31T18:17:28.645Z,99196.18
2018-05-31T18:23:33.006Z,99193.27
2018-05-31T18:29:38.107Z,99203.73
2018-05-31T18:35:42.453Z,99196.23
2018-05-31T18:41:47.567Z,99209.28
2018-05-31T18:47:52.874Z,99211.28
2018-05-31T18:53:57.284Z,99232.34
2018-05-31T19:00:01.658Z,99238.90
2018-05-31T19:06:06.879Z,99241.13
2018-05-31T19:12:11.236Z,99258.12
2018-05-31T19:18:21.442Z,99284.54
2018-05-31T19:24:32.170Z,99298.70
2018-05-31T19:30:41.984Z,99305.14
2018-05-31T19:36:53.359Z,99318.55
2018-05-31T19:43:03.463Z,99318.91
2018-05-31T19:49:08.631Z,99316.67
2018-05-31T19:55:12.973Z,99313.92
2018-05-31T20:01:23.177Z,99315.45
2018-05-31T20:07:27.580Z,99316.56
2018-05-31T20:13:31.929Z,99314.37
2018-05-31T20:19:36.289Z,99298.78
2018-05-31T20:25:40.656Z,99299.51
2018-05-31T20:31:45.366Z,99289.27
2018-05-31T20:37:49.731Z,99302.80
2018-05-31T20:43:54.277Z,99299.13
2018-05-31T20:49:59.408Z,99298.48
2018-05-31T20:56:03.781Z,99311.99
2018-05-31T21:02:08.128Z,99313.28
2018-05-31T21:08:12.489Z,99319.91
2018-05-31T21:14:17.613Z,99308.89
2018-05-31T21:20:22.052Z,99305.87
2018-05-31T21:26:26.408Z,99297.73
2018-05-31T21:32:30.788Z,99286.89
2018-05-31T21:38:35.150Z,99268.92
2018-05-31T21:44:39.526Z,99257.84
2018-05-31T21:50:43.875Z,99269.55
2018-05-31T21:56:48.292Z,99265.97
2018-05-31T22:02:53.560Z,99277.48
2018-05-31T22:08:57.912Z,99276.92
2018-05-31T22:15:02.269Z,99276.25
2018-05-31T22:21:06.631Z,99290.28
2018-05-31T22:27:11.749Z,99294.67
2018-05-31T22:33:16.103Z,99293.47
2018-05-31T22:39:21.240Z,99284.85
2018-05-31T22:45:25.589Z,99292.22
2018-05-31T22:51:29.985Z,99281.03
2018-05-31T22:57:34.333Z,99278.84
2018-05-31T23:03:38.658Z,99276.33
2018-05-31T23:09:43.046Z,99275.91
2018-05-31T23:15:48.182Z,99268.98
2018-05-31T23:34:57.591Z,99246.33
2018-05-31T23:41:02.720Z,99252.79
2018-05-31T23:47:07.076Z,99253.31
2018-05-31T23:53:11.426Z,99254.72
2018-05-31T23:59:16.609Z,99248.39
